May 22, 2022

Time Code Weather Temp. Visibility Clouds Wind METAR/SPECI
8:55 am
V
61 °F 6¼ mi+ 3,700 ft Var   Var 1 kt METAR EHEH 220655Z AUTO VRB01KT 9999 BKN037 BKN340 16/10 Q1018 BLU NOSIG
8:25 am
V
59 °F 6¼ mi+ 23,000 ft Var   Var 1 kt METAR EHEH 220625Z AUTO VRB01KT 9999 FEW039 OVC230 15/10 Q1017 BLU NOSIG
7:55 am
V
57 °F 6¼ mi+ 33,000 ft Var   Var 1 kt METAR EHEH 220555Z AUTO VRB01KT 9999 FEW240 OVC330 14/10 Q1017 BLU NOSIG
7:25 am
V
54 °F 6¼ mi+ 24,000 ft Var   Var 2 kt METAR EHEH 220525Z AUTO VRB02KT 9999 BKN240 OVC290 12/10 Q1017 BLU NOSIG
6:55 am
V
48 °F 6¼ mi+ 23,000 ft 010°   010° 2 kt METAR EHEH 220455Z AUTO 01002KT 9999 OVC230 09/08 Q1017 BLU NOSIG
6:25 am
V
48 °F 6¼ mi+ 33,000 ft Var   000° 0 kt METAR EHEH 220425Z AUTO 00000KT 9999 OVC330 09/08 Q1017 BLU NOSIG
5:55 am
V
46 °F 6¼ mi+ - Var   Var 2 kt METAR EHEH 220355Z AUTO VRB02KT 9999 NCD 08/08 Q1017 BLU
5:25 am
V
46 °F 6¼ mi+ - 160°   160° 1 kt METAR EHEH 220325Z AUTO 16001KT 9999 FEW044 08/08 Q1018 BLU
4:55 am
V
48 °F 6¼ mi+ - Var   000° 0 kt METAR EHEH 220255Z AUTO 00000KT 9999 NCD 09/09 Q1018 BLU
4:25 am
V
50 °F 6¼ mi+ 5,200 ft Var   Var 1 kt METAR EHEH 220225Z AUTO VRB01KT 9999 SCT041 SCT047 BKN052 10/09 Q1018 BLU
3:55 am
V
50 °F 6¼ mi+ 5,300 ft Var   Var 2 kt METAR EHEH 220155Z AUTO VRB02KT 9999 SCT038 SCT045 BKN053 10/09 Q1018 BLU
3:25 am
V
50 °F 6¼ mi+ - Var   Var 1 kt METAR EHEH 220125Z AUTO VRB01KT 9999 FEW045 SCT057 10/09 Q1019 BLU
2:55 am
V
48 °F 6¼ mi+ 3,500 ft 250°   250° 1 kt METAR EHEH 220055Z AUTO 25001KT 9999 BKN035 OVC042 09/09 Q1019 BLU
2:25 am
V
48 °F 6¼ mi+ 21,000 ft 250°   250° 1 kt METAR EHEH 220025Z AUTO 25001KT 9999 SCT044 BKN210 09/09 Q1019 BLU
1:55 am
V
50 °F 6¼ mi+ 20,000 ft 270°   270° 1 kt METAR EHEH 212355Z AUTO 27001KT 9999 OVC200 10/09 Q1019 BLU
1:25 am
V
52 °F 6¼ mi+ 5,200 ft 220°   220° 1 kt METAR EHEH 212325Z AUTO 22001KT 9999 OVC052 11/09 Q1019 BLU
12:55 am
V
52 °F 6¼ mi+ 5,000 ft 250°   250° 1 kt METAR EHEH 212255Z AUTO 25001KT 9999 OVC050 11/09 Q1020 BLU
12:25 am
V
52 °F 6¼ mi+ 5,100 ft Var   000° 0 kt METAR EHEH 212225Z AUTO 00000KT 9999 OVC051 11/09 Q1020 BLU

May 21, 2022

Time Code Weather Temp. Visibility Clouds Wind METAR/SPECI
11:55 pm
V
50 °F 6¼ mi+ - Var   000° 0 kt METAR EHEH 212155Z AUTO 00000KT 9999 NCD 10/09 Q1020 BLU
11:25 pm
V
52 °F 6¼ mi+ 20,000 ft 250°   250° 1 kt METAR EHEH 212125Z AUTO 25001KT 9999 FEW053 BKN200 BKN350 11/09 Q1020 BLU
11:04 pm
V
52 °F 6¼ mi+ 18,000 ft 310°   310° 1 kt METAR EHEH 212104Z AUTO 31001KT 9999 SCT054 OVC180 11/09 Q1020 BLU
10:55 pm
V
54 °F 6¼ mi+ 18,000 ft Var   Var 1 kt METAR EHEH 212055Z AUTO VRB01KT 9999 FEW055 OVC180 12/09 Q1020 BLU NOSIG
10:25 pm
V
55 °F 6¼ mi+ 20,000 ft 340°   340° 2 kt METAR EHEH 212025Z AUTO 34002KT 9999 BKN200 13/09 Q1020 BLU NOSIG
9:55 pm
V
57 °F 6¼ mi+ 22,000 ft 340°   340° 3 kt METAR EHEH 211955Z AUTO 34003KT 9999 OVC220 14/09 Q1020 BLU NOSIG
9:25 pm
V
59 °F 6¼ mi+ 24,000 ft 340°   340° 5 kt METAR EHEH 211925Z AUTO 34005KT 260V010 9999 OVC240 15/10 Q1020 BLU NOSIG
8:55 pm
V
61 °F 6¼ mi+ 25,000 ft 340°   340° 6 kt METAR EHEH 211855Z AUTO 34006KT 310V020 9999 BKN250 OVC300 16/10 Q1020 BLU NOSIG
8:25 pm
V
63 °F 6¼ mi+ 32,000 ft 340°   340° 6 kt METAR EHEH 211825Z AUTO 34006KT 250V020 9999 BKN320 17/10 Q1020 BLU NOSIG
7:55 pm
V
64 °F 6¼ mi+ 12,000 ft 340°   340° 8 kt METAR EHEH 211755Z AUTO 34008KT 290V040 9999 OVC120 18/10 Q1020 BLU NOSIG
7:25 pm
V
64 °F 6¼ mi+ 12,000 ft 310°   310° 6 kt METAR EHEH 211725Z AUTO 31006KT 240V030 9999 FEW054 OVC120 18/10 Q1020 BLU NOSIG
6:55 pm
V
64 °F 6¼ mi+ 13,000 ft 310°   310° 6 kt METAR EHEH 211655Z AUTO 31006KT 250V350 9999 OVC130 18/09 Q1020 BLU NOSIG
6:25 pm
V
64 °F 6¼ mi+ 5,500 ft 280°   280° 5 kt METAR EHEH 211625Z AUTO 28005KT 240V350 9999 FEW042 SCT048 BKN055 18/10 Q1020 BLU NOSIG
5:55 pm
V
66 °F 6¼ mi+ 3,900 ft 280°   280° 7 kt METAR EHEH 211555Z AUTO 28007KT 250V360 9999 OVC039 19/10 Q1020 BLU NOSIG
5:25 pm
V
64 °F 6¼ mi+ 3,800 ft 250°   250° 6 kt METAR EHEH 211525Z AUTO 25006KT 210V330 9999 OVC038 18/10 Q1021 BLU NOSIG
4:55 pm
V
66 °F 6¼ mi+ 14,000 ft 280°   280° 7 kt METAR EHEH 211455Z AUTO 28007KT 230V020 9999 FEW038 SCT058 OVC140 19/10 Q1021 BLU NOSIG
4:25 pm
V
66 °F 6¼ mi+ 5,900 ft 270°   270° 7 kt METAR EHEH 211425Z AUTO 27007KT 220V340 9999 FEW039 SCT049 OVC059 19/10 Q1021 BLU NOSIG
3:55 pm
V
64 °F 6¼ mi+ 4,800 ft 250°   250° 10 kt METAR EHEH 211355Z AUTO 25010KT 210V300 9999 SCT038 SCT043 BKN048 18/10 Q1021 BLU NOSIG
3:25 pm
V
66 °F 6¼ mi+ 13,000 ft 260°   260° 8 kt METAR EHEH 211325Z AUTO 26008KT 210V300 9999 OVC130 19/10 Q1021 BLU NOSIG
2:55 pm
V
66 °F 6¼ mi+ 3,500 ft 250°   250° 10 kt METAR EHEH 211255Z AUTO 25010KT 200V300 9999 BKN035 BKN046 OVC054 19/09 Q1021 BLU NOSIG
2:25 pm
V
66 °F 6¼ mi+ 16,000 ft 250°   250° 10 kt METAR EHEH 211225Z AUTO 25010KT 210V330 9999 SCT032 SCT051 OVC160 19/11 Q1021 BLU NOSIG
1:55 pm
V
64 °F 6¼ mi+ 18,000 ft 240°   240° 11 kt METAR EHEH 211155Z AUTO 24011KT 200V300 9999 FEW035 SCT060 BKN180 18/10 Q1022 BLU NOSIG
1:25 pm
V
66 °F 6¼ mi+ 4,200 ft 250°   250° 9 kt METAR EHEH 211125Z AUTO 25009KT 200V280 9999 FEW031 SCT035 BKN042 19/11 Q1022 BLU NOSIG
12:55 pm
V
64 °F 6¼ mi+ 4,800 ft 250°   250° 11 kt METAR EHEH 211055Z AUTO 25011KT 200V280 9999 FEW030 SCT035 BKN048 18/10 Q1022 BLU NOSIG
12:25 pm
V
61 °F 6¼ mi+ 4,400 ft 230°   230° 10 kt METAR EHEH 211025Z AUTO 23010KT 220V300 9999 FEW028 SCT033 BKN044 16/10 Q1022 BLU NOSIG
11:55 am
V
61 °F 6¼ mi+ 4,800 ft 240°   240° 12 kt METAR EHEH 210955Z AUTO 24012KT 190V270 9999 FEW026 BKN048 OVC054 16/10 Q1021 BLU NOSIG
11:25 am
V
63 °F 6¼ mi+ 3,800 ft 240°   240° 14 kt METAR EHEH 210925Z AUTO 24014KT 210V310 9999 SCT024 SCT029 BKN038 17/11 Q1021 WHT NOSIG
11:17 am
M
61 °F 6¼ mi+ 2,800 ft 240°   240° 12 kt METAR EHEH 210917Z AUTO 24012KT 210V300 9999 SCT024 BKN028 BKN035 16/10 Q1021 WHT NOSIG
11:08 am
V
61 °F 6¼ mi+ 3,200 ft 240°   240° 10 kt METAR EHEH 210908Z AUTO 24010KT 200V290 9999 FEW023 SCT027 BKN032 16/10 Q1021 BLU NOSIG
10:59 am
M
61 °F 6¼ mi+ 2,800 ft 240°   240° 10 kt METAR EHEH 210859Z AUTO 24010KT 210V290 9999 SCT023 BKN028 16/11 Q1021 WHT NOSIG
10:55 am
V
61 °F 6¼ mi+ 3,400 ft 240°   240° 10 kt METAR EHEH 210855Z AUTO 24010KT 210V280 9999 SCT022 BKN034 BKN044 16/11 Q1022 WHT NOSIG
10:43 am
M
61 °F 6¼ mi+ 2,700 ft 230°   230° 11 kt METAR EHEH 210843Z AUTO 23011KT 200V300 9999 SCT021 SCT024 BKN027 16/11 Q1021 WHT NOSIG
10:36 am
V
59 °F 6¼ mi+ 3,100 ft 240°   240° 10 kt METAR EHEH 210836Z AUTO 24010KT 200V290 9999 SCT021 SCT027 BKN031 15/10 Q1021 WHT NOSIG
10:29 am
V
61 °F 6¼ mi+ 3,500 ft 260°   260° 8 kt METAR EHEH 210829Z AUTO 26008KT 220V320 9999 FEW019 SCT026 BKN035 16/11 Q1022 BLU NOSIG
10:25 am
M
59 °F 6¼ mi+ 2,200 ft 260°   260° 8 kt METAR EHEH 210825Z AUTO 26008KT 220V320 9999 SCT018 BKN022 BKN026 15/10 Q1022 WHT BECMG SCT020 BKN030
9:55 am
M
57 °F 6¼ mi+ 2,100 ft 240°   240° 11 kt METAR EHEH 210755Z AUTO 24011KT 210V290 9999 SCT016 BKN021 BKN024 14/10 Q1021 WHT BECMG SCT020 BKN030
9:39 am
M
57 °F 6¼ mi+ 1,600 ft 240°   240° 9 kt METAR EHEH 210739Z AUTO 24009KT 200V270 9999 BKN016 BKN020 OVC023 14/10 Q1021 WHT BECMG BKN020
9:25 am
M
57 °F 6¼ mi+ 1,800 ft 240°   240° 11 kt METAR EHEH 210725Z AUTO 24011KT 180V290 9999 SCT015 BKN018 OVC022 14/11 Q1021 WHT TEMPO SCT010 BKN014 BECMG BKN020
9:09 am
M
57 °F 6¼ mi+ 1,600 ft 240°   240° 11 kt METAR EHEH 210709Z AUTO 24011KT 210V280 9999 FEW013 BKN016 OVC019 14/10 Q1021 WHT TEMPO SCT010 BKN014 BECMG BKN020
8:55 am
M
57 °F 6¼ mi+ 1,400 ft 240°   240° 11 kt METAR EHEH 210655Z AUTO 24011KT 200V290 9999 FEW011 BKN014 BKN016 14/10 Q1021 GRN TEMPO SCT010 BKN014 BECMG BKN020
8:44 am
M
55 °F 6¼ mi+ 1,600 ft 230°   230° 11 kt METAR EHEH 210644Z AUTO 23011KT 210V270 9999 FEW011 SCT013 BKN016 13/11 Q1021 GRN TEMPO SCT010 BKN014
8:40 am
M
57 °F 6¼ mi+ 1,600 ft 230°   230° 11 kt METAR EHEH 210640Z AUTO 23011KT 210V270 9999 FEW011 SCT014 BKN016 14/11 Q1021 GRN TEMPO SCT010 BKN014
8:32 am
M
55 °F 6¼ mi+ 1,500 ft 230°   230° 11 kt METAR EHEH 210632Z AUTO 23011KT 200V290 9999 SCT010 SCT013 BKN015 13/10 Q1021 GRN TEMPO SCT010 BKN014
8:29 am
M
55 °F 6¼ mi+ 1,700 ft 230°   230° 9 kt METAR EHEH 210629Z AUTO 23009KT 200V290 9999 SCT010 BKN017 13/10 Q1021 GRN TEMPO SCT010 BKN014
8:25 am
V
55 °F 6¼ mi+ - 230°   230° 10 kt METAR EHEH 210625Z AUTO 23010KT 210V280 9999 SCT010 SCT017 13/10 Q1021 GRN TEMPO SCT010 BKN014
7:55 am
M
54 °F 6¼ mi+ 1,000 ft 230°   230° 10 kt METAR EHEH 210555Z AUTO 23010KT 200V260 9999 SCT009 BKN010 BKN012 12/10 Q1021 GRN TEMPO SCT012 BKN014
7:25 am
M
54 °F 6¼ mi+ 1,300 ft 220°   220° 9 kt METAR EHEH 210525Z AUTO 22009KT 190V250 9999 BKN013 BKN210 12/10 Q1020 GRN TEMPO SCT012 BKN014
7:09 am
M
54 °F 6¼ mi+ 1,300 ft 220°   220° 8 kt METAR EHEH 210509Z AUTO 22008KT 190V260 9999 BKN013 OVC015 12/10 Q1020 GRN TEMPO SCT012 BKN014
6:55 am
M
52 °F 6¼ mi+ 1,500 ft 230°   230° 9 kt METAR EHEH 210455Z AUTO 23009KT 200V270 9999 SCT013 BKN015 11/10 Q1020 GRN TEMPO SCT012 BKN014
6:25 am
M
52 °F 6¼ mi+ 1,400 ft 220°   220° 10 kt METAR EHEH 210425Z AUTO 22010KT 190V260 9999 FEW012 BKN014 OVC017 11/10 Q1020 GRN TEMPO SCT012 BKN014
6:09 am
M
52 °F 6¼ mi+ 1,500 ft 220°   220° 9 kt METAR EHEH 210409Z AUTO 22009KT 190V250 9999 SCT013 OVC015 11/10 Q1020 GRN
6:03 am
M
52 °F 6¼ mi+ 1,700 ft 220°   220° 9 kt METAR EHEH 210403Z AUTO 22009KT 9999 SCT014 OVC017 11/09 Q1020 GRN
5:55 am
M
54 °F 6¼ mi+ 1,700 ft 230°   230° 10 kt METAR EHEH 210355Z AUTO 23010KT 190V260 9999 BKN017 OVC021 12/09 Q1020 WHT
5:25 am
M
54 °F 6¼ mi+ 1,700 ft 230°   230° 10 kt METAR EHEH 210325Z AUTO 23010KT 200V260 9999 FEW014 BKN017 OVC020 12/10 Q1020 WHT
5:20 am
M
54 °F 6¼ mi+ 1,700 ft 230°   230° 10 kt METAR EHEH 210320Z AUTO 23010KT 200V260 9999 SCT014 OVC017 12/10 Q1020 GRN
4:55 am
M
54 °F 6¼ mi+ 1,600 ft 220°   220° 10 kt METAR EHEH 210255Z AUTO 22010KT 9999 BKN016 OVC019 12/09 Q1020 WHT
4:25 am
M
54 °F 6¼ mi+ 1,500 ft 220°   220° 10 kt METAR EHEH 210225Z AUTO 22010KT 200V280 9999 OVC015 12/09 Q1020 WHT
3:55 am
M
54 °F 6¼ mi+ 1,600 ft 220°   220° 11 kt METAR EHEH 210155Z AUTO 22011KT 190V270 9999 OVC016 12/09 Q1020 WHT
3:25 am
M
54 °F 6¼ mi+ 1,600 ft 220°   220° 10 kt METAR EHEH 210125Z AUTO 22010KT 200V260 9999 OVC016 12/09 Q1020 WHT
3:03 am
M
52 °F 6¼ mi+ 1,700 ft 220°   220° 9 kt METAR EHEH 210103Z AUTO 22009KT 190V260 9999 BKN017 BKN021 11/09 Q1020 WHT
2:59 am
V
52 °F 6¼ mi+ - 220°   220° 9 kt METAR EHEH 210059Z AUTO 22009KT 190V260 9999 SCT018 11/09 Q1020 WHT
2:55 am
V
52 °F 6¼ mi+ - 220°   220° 9 kt METAR EHEH 210055Z AUTO 22009KT 190V250 9999 FEW021 11/09 Q1020 BLU
2:25 am
V
52 °F 6¼ mi+ - 220°   220° 9 kt METAR EHEH 210025Z AUTO 22009KT 190V250 9999 NCD 11/09 Q1020 BLU RMK CB INFO NOT AVBL
1:55 am
V
52 °F 6¼ mi+ - 220°   220° 9 kt METAR EHEH 202355Z AUTO 22009KT 190V250 9999 NCD 11/09 Q1020 BLU
1:25 am
V
52 °F 6¼ mi+ - 200°   200° 7 kt METAR EHEH 202325Z AUTO 20007KT 9999 NCD 11/09 Q1020 BLU
12:55 am
V
50 °F 6¼ mi+ - 210°   210° 7 kt METAR EHEH 202255Z AUTO 21007KT 9999 NCD 10/09 Q1020 BLU
12:25 am
V
50 °F 6¼ mi+ - 210°   210° 6 kt METAR EHEH 202225Z AUTO 21006KT 9999 NCD 10/09 Q1020 BLU

May 20, 2022

Time Code Weather Temp. Visibility Clouds Wind METAR/SPECI
11:55 pm
V
50 °F 6¼ mi+ - 230°   230° 6 kt METAR EHEH 202155Z AUTO 23006KT 200V260 9999 NCD 10/09 Q1020 BLU
11:25 pm
V
52 °F 6¼ mi+ - 240°   240° 6 kt METAR EHEH 202125Z AUTO 24006KT 210V280 9999 NCD 11/09 Q1020 BLU
10:55 pm
V
54 °F 6¼ mi+ - 250°   250° 7 kt METAR EHEH 202055Z AUTO 25007KT 210V280 9999 NCD 12/09 Q1019 BLU NOSIG
10:26 pm
V
55 °F 6¼ mi+ - 240°   240° 10 kt METAR EHEH 202026Z AUTO 24010KT 210V290 9999 FEW030 13/10 Q1019 BLU NOSIG
10:25 pm
V
55 °F 6¼ mi+ - 250°   250° 9 kt METAR EHEH 202025Z AUTO 25009KT 200V290 9999 SCT024 SCT029 13/10 Q1019 WHT NOSIG
10:04 pm
M
55 °F 6¼ mi+ 2,100 ft 240°   240° 8 kt METAR EHEH 202004Z AUTO 24008KT 210V270 9999 SCT017 BKN021 BKN027 13/10 Q1019 WHT NOSIG
10:00 pm
V
55 °F 6¼ mi+ 3,100 ft 240°   240° 8 kt METAR EHEH 202000Z AUTO 24008KT 220V280 9999 FEW018 SCT023 BKN031 13/10 Q1019 WHT NOSIG
9:55 pm
V
55 °F 6¼ mi+ 3,200 ft 240°   240° 10 kt METAR EHEH 201955Z AUTO 24010KT 200V280 9999 BKN032 13/10 Q1018 BLU NOSIG
9:25 pm
V
55 °F 6¼ mi+ - 260°   260° 8 kt METAR EHEH 201925Z AUTO 26008KT 220V320 9999 SCT028 13/10 Q1018 BLU NOSIG
9:15 pm
V
55 °F 6¼ mi+ - 260°   260° 8 kt METAR EHEH 201915Z AUTO 26008KT 230V300 9999 FEW017 SCT022 13/10 Q1018 WHT NOSIG
8:55 pm
V
55 °F 6¼ mi+ - 260°   260° 9 kt METAR EHEH 201855Z AUTO 26009KT 220V300 9999 NCD 13/10 Q1017 BLU BECMG SCT020
8:25 pm
V
57 °F 6¼ mi+ 4,200 ft 250°   250° 10 kt METAR EHEH 201825Z AUTO 25010KT 220V290 9999 FEW011 SCT013 BKN042 14/11 Q1017 GRN BECMG SCT020
7:55 pm
M
57 °F 6¼ mi+ 1,400 ft 260°   260° 12 kt METAR EHEH 201755Z AUTO 26012KT 220V320 9999 SCT011 OVC014 14/11 Q1017 GRN BECMG SCT020
7:25 pm
M
57 °F 6¼ mi+ 1,400 ft 280°   280° 11 kt METAR EHEH 201725Z AUTO 28011KT 220V320 9999 SCT011 BKN014 BKN016 14/11 Q1016 GRN NOSIG
6:55 pm
M
59 °F 6¼ mi+ 1,400 ft 280°   280° 11 kt METAR EHEH 201655Z AUTO 28011KT 200V340 9999 BKN014 OVC016 15/12 Q1016 GRN NOSIG
6:25 pm
M
59 °F 6¼ mi+ 2,400 ft 290°   290° 9 kt METAR EHEH 201625Z AUTO 29009KT 240V010 9999 SCT010 BKN024 BKN042 15/12 Q1015 GRN NOSIG
5:55 pm
I
59 °F 6¼ mi+ 700 ft 280°   280° 11 kt METAR EHEH 201555Z AUTO 28011KT 240V360 9999 OVC007 15/13 Q1014 GRN TEMPO 29020G36KT 4000 SHRA SCT015 BKN025CB
5:29 pm
I
61 °F 5⅝ mi 500 ft 280°   280° 15 25 kt METAR EHEH 201529Z AUTO 28015G25KT 240V350 9000 BR BKN005 OVC009 16/15 Q1013 YLO TEMPO VRB20G36KT 4000 SHRA SCT015 BKN025CB
5:25 pm
I
61 °F 5⅝ mi 700 ft 280°   280° 17 kt METAR EHEH 201525Z AUTO 28017KT 230V350 9000 BR SCT006 BKN007 OVC008 16/15 Q1013 YLO TEMPO VRB20G36KT 4000 SHRA SCT015 BKN025CB
5:10 pm
M
66 °F 6¼ mi+ 1,400 ft 250°   250° 19 kt METAR EHEH 201510Z AUTO 25019KT 210V300 9999 FEW011 BKN014 BKN017 19/17 Q1012 GRN TEMPO VRB20G36KT 4000 SHRA SCT015 BKN025CB
5:00 pm
M
68 °F 6¼ mi+ 1,700 ft 220°   220° 18 kt METAR EHEH 201500Z AUTO 22018KT 190V270 9999 -RA SCT014 BKN017 OVC022 20/17 Q1012 GRN TEMPO VRB10G2KT 4000 SHRA SCT015 BKN025CB
4:55 pm
M
68 °F 6¼ mi+ 1,600 ft 210°   210° 15 kt METAR EHEH 201455Z AUTO 21015KT 180V240 9999 -RADZ FEW014 BKN016 OVC020 20/17 Q1012 WHT TEMPO VRB10G2KT 4000 SHRA SCT015 BKN025CB
4:25 pm
M
68 °F 6¼ mi+ 2,000 ft 200°   200° 14 kt METAR EHEH 201425Z AUTO 20014KT 180V240 9999 BKN020 OVC023 20/17 Q1012 WHT NOSIG
4:20 pm
M
68 °F 6¼ mi+ 2,100 ft 200°   200° 15 kt METAR EHEH 201420Z AUTO 20015KT 9999 FEW015CB BKN021 BKN024 BKN035 20/17 Q1012 WHT NOSIG
4:13 pm
V
68 °F 6¼ mi+ 8,200 ft 200°   200° 15 kt METAR EHEH 201413Z AUTO 20015KT 9999 FEW015CB SCT022 BKN082 20/18 Q1012 WHT NOSIG
4:02 pm
V
68 °F 6¼ mi+ 9,300 ft 190°   190° 14 25 kt METAR EHEH 201402Z AUTO 19014G25KT 160V230 9999 -RA FEW015CB SCT024 BKN093 20/17 Q1012 WHT NOSIG
3:55 pm
V
68 °F 6¼ mi+ 10,000 ft 180°   180° 12 kt METAR EHEH 201355Z AUTO 18012KT 140V210 9999 -RA FEW015CB SCT099 OVC100 20/18 Q1012 BLU NOSIG
3:41 pm
M
68 °F 3¾ mi 6,700 ft 170°   170° 9 kt METAR EHEH 201341Z AUTO 17009KT 140V210 6000 -RA FEW054 BKN067 BKN072 20/18 Q1013 WHT NOSIG
3:31 pm
M
68 °F 3⅛ mi 8,800 ft 170°   170° 7 kt METAR EHEH 201331Z AUTO 17007KT 120V210 5000 BR FEW011 SCT081 BKN088 20/18 Q1013 WHT NOSIG
3:25 pm
I
68 °F 2⅞ mi 10,000 ft 160°   160° 6 kt METAR EHEH 201325Z AUTO 16006KT 100V190 4700 BR SCT063 OVC100 20/18 Q1013 GRN NOSIG
3:15 pm
I
68 °F 3 mi 9,700 ft 130°   130° 4 kt METAR EHEH 201315Z AUTO 13004KT 4900 BR FEW021 OVC097 20/18 Q1013 GRN NOSIG
2:55 pm
M
66 °F 3⅛ mi 10,000 ft 120°   120° 4 kt METAR EHEH 201255Z AUTO 12004KT 050V210 5000 BR FEW072 OVC100 19/18 Q1012 REDZ WHT NOSIG
2:35 pm
M
66 °F 3⅛ mi 10,000 ft 120°   120° 7 kt METAR EHEH 201235Z AUTO 12007KT 080V190 5000 -TSRA DZ SCT015CB SCT036 OVC100 19/17 Q1013 WHT TEMPO VRB18G35KT 3000 SHRA TSRA SCT008 BKN025CB
2:30 pm
M
66 °F 3¾ mi 1,500 ft 140°   140° 7 kt METAR EHEH 201230Z AUTO 14007KT 080V190 6000 -TSRA BKN015CB SCT036 BKN040 19/17 Q1013 WHT TEMPO VRB18G35KT 3000 SHRA TSRA SCT008 BKN025CB
2:26 pm
M
66 °F 3¾ mi 1,500 ft 150°   150° 6 kt METAR EHEH 201226Z AUTO 15006KT 080V190 6000 -TSRA BKN015CB SCT038 BKN044 19/17 Q1014 WHT TEMPO VRB18G35KT 3000 SHRA TSRA SCT008 BKN025CB
2:25 pm
M
66 °F 3¾ mi 1,500 ft 140°   140° 7 kt METAR EHEH 201225Z AUTO 14007KT 100V180 6000 TSRA BKN015CB SCT043 BKN050 19/17 Q1014 REDZUP WHT TEMPO VRB18G35KT 3000 SHRA TSRA SCT008 BKN025CB
2:14 pm
M
66 °F 3¾ mi 7,200 ft 130°   130° 8 kt METAR EHEH 201214Z AUTO 13008KT 100V190 6000 TSRA SCT015CB SCT057 BKN072 19/16 Q1014 WHT TEMPO VRB18G35KT 3000 SHRA TSRA SCT008 BKN025CB
2:10 pm
V
68 °F 5⅝ mi 4,700 ft 130°   130° 8 kt METAR EHEH 201210Z AUTO 13008KT 070V190 9000 SHRA FEW015CB BKN047/// BKN062/// 20/16 Q1014 BLU TEMPO VRB18G35KT 3000 SHRA TSRA SCT008 BKN025CB
2:05 pm
M
68 °F 3¾ mi 6,600 ft 120°   120° 8 kt METAR EHEH 201205Z AUTO 12008KT 050V150 6000 -RADZ FEW020CB SCT047 BKN066 20/15 Q1014 WHT TEMPO VRB18G35KT 3000 SHRA TSRA SCT008 BKN025CB
1:55 pm
V
70 °F 6¼ mi+ 6,900 ft 100°   100° 7 kt METAR EHEH 201155Z AUTO 10007KT 070V150 9999 FEW055 BKN069 OVC075 21/15 Q1014 BLU TEMPO VRB18G35KT 3000 SHRA TSRA SCT008 BKN025CB
1:25 pm
V
70 °F 6¼ mi+ 12,000 ft 090°   090° 9 kt METAR EHEH 201125Z AUTO 09009KT 360V140 9999 FEW093 OVC120 21/14 Q1014 BLU TEMPO FM1230 VRB18G35KT 3000 SHRA TSRA SCT008 BKN025CB
12:55 pm
V
70 °F 6¼ mi+ 5,100 ft 080°   080° 8 kt METAR EHEH 201055Z AUTO 08008KT 010V130 9999 SCT044 BKN051 BKN068 21/14 Q1015 BLU NOSIG
12:25 pm
V
68 °F 6¼ mi+ 4,900 ft 080°   080° 8 kt METAR EHEH 201025Z AUTO 08008KT 040V120 9999 BKN049 OVC054 20/13 Q1016 BLU NOSIG
11:55 am
V
70 °F 6¼ mi+ 14,000 ft 090°   090° 9 kt METAR EHEH 200955Z AUTO 09009KT 020V140 9999 FEW059 OVC140 21/13 Q1017 BLU NOSIG
11:25 am
V
68 °F 6¼ mi+ 5,700 ft 060°   060° 8 kt METAR EHEH 200925Z AUTO 06008KT 040V140 9999 BKN057 OVC077 20/12 Q1018 BLU NOSIG
10:55 am
V
66 °F 6¼ mi+ 14,000 ft 070°   070° 8 kt METAR EHEH 200855Z AUTO 07008KT 020V120 9999 FEW064 OVC140 19/12 Q1018 BLU NOSIG
10:25 am
V
66 °F 6¼ mi+ 13,000 ft 080°   080° 8 kt METAR EHEH 200825Z AUTO 08008KT 050V120 9999 OVC130 19/11 Q1019 BLU NOSIG
9:55 am
V
64 °F 6¼ mi+ 6,300 ft 100°   100° 7 kt METAR EHEH 200755Z AUTO 10007KT 020V130 9999 OVC063 18/11 Q1019 BLU NOSIG
9:25 am
V
63 °F 6¼ mi+ 17,000 ft 070°   070° 7 kt METAR EHEH 200725Z AUTO 07007KT 030V110 9999 SCT080 OVC170 17/11 Q1020 BLU NOSIG
9:11 am
M
63 °F 6¼ mi+ 2,600 ft 070°   070° 6 kt METAR EHEH 200711Z AUTO 07006KT 330V130 9999 BKN026 BKN033 OVC200 17/11 Q1020 BLU NOSIG
8:55 am
M
61 °F 6¼ mi+ 2,400 ft 070°   070° 6 kt METAR EHEH 200655Z AUTO 07006KT 030V110 9999 BKN024 BKN080 BKN180 16/11 Q1020 WHT NOSIG
8:25 am
V
61 °F 6¼ mi+ 22,000 ft 080°   080° 5 kt METAR EHEH 200625Z AUTO 08005KT 040V120 9999 FEW026 SCT030 BKN220 16/12 Q1020 BLU NOSIG
8:10 am
V
59 °F 5⅝ mi - 080°   080° 5 kt METAR EHEH 200610Z AUTO 08005KT 040V130 9000 BR FEW031 15/12 Q1020 BLU NOSIG
7:57 am
V
59 °F 5 mi 7,700 ft 070°   070° 4 kt METAR EHEH 200557Z AUTO 07004KT 030V100 8000 BR FEW031 BKN077 15/13 Q1020 BLU NOSIG
7:55 am
M
59 °F 3¾ mi 7,600 ft 060°   060° 5 kt METAR EHEH 200555Z AUTO 06005KT 030V100 6000 BR BKN076 15/13 Q1020 WHT NOSIG
7:39 am
M
57 °F 3¾ mi 7,500 ft 070°   070° 4 kt METAR EHEH 200539Z AUTO 07004KT 030V090 6000 BR BKN075 14/13 Q1021 WHT NOSIG
7:29 am
M
57 °F 3⅛ mi 7,300 ft 070°   070° 3 kt METAR EHEH 200529Z AUTO 07003KT 5000 BR OVC073 14/12 Q1021 WHT BECMG 5000 NSW
7:25 am
I
57 °F 2½ mi 7,300 ft 070°   070° 3 kt METAR EHEH 200525Z AUTO 07003KT 040V110 4100 BR BKN073 14/13 Q1021 GRN BECMG 5000 NSW
7:21 am
I
57 °F 2¼ mi 7,300 ft Var   Var 2 kt METAR EHEH 200521Z AUTO VRB02KT 3700 BR BKN073 14/13 Q1021 GRN BECMG 5000 NSW
7:10 am
I
55 °F 2½ mi 7,400 ft Var   Var 2 kt METAR EHEH 200510Z AUTO VRB02KT 4100 BR OVC074 13/13 Q1021 GRN BECMG 5000 NSW
6:55 am
I
52 °F 1½ mi 21,000 ft Var   Var 2 kt METAR EHEH 200455Z AUTO VRB02KT 2500 R03/2500U BR FEW075 BKN210 BKN380 11/11 Q1020 YLO BECMG 5000 NSW
6:39 am
I
50 °F 1⅛ mi 19,000 ft Var   Var 2 kt METAR EHEH 200439Z AUTO VRB02KT 1900 R03/1900N BR BKN190 BKN380 10/10 Q1021 YLO BECMG 5000 NSW
Older data

Download our app

Easy access to all aviation weather on your mobile phone and tablet.
With many features not available on the website, like offline support and a personal airport list.

We and third parties follow your internet behavior on our website with cookies. If you continue, we assume you agree with our cookie policy. Learn more